Time,TemperatureF,DewpointF,PressureIn,WindDirection,WindDirectionDegrees,WindSpeedMPH,WindSpeedGustMPH,Humidity,HourlyPrecipIn,Conditions,Clouds,dailyrainin,SoftwareType,DateUTC
2013-02-10 00:00:00,5.1,2.8,30.41,SE,141,0.0,0.0,90,0.00,,CLR,0.00,VWS V14.01,2013-02-10 05:00:00,
2013-02-10 00:06:00,4.7,2.4,30.41,SE,141,0.0,0.0,90,0.00,,CLR,0.00,VWS V14.01,2013-02-10 05:06:00,
2013-02-10 00:11:00,4.7,2.4,30.41,SE,141,0.0,0.0,90,0.00,,CLR,0.00,VWS V14.01,2013-02-10 05:11:00,
2013-02-10 00:16:00,4.8,2.5,30.40,SE,141,0.0,0.0,90,0.00,,CLR,0.00,VWS V14.01,2013-02-10 05:16:00,
2013-02-10 00:21:00,4.6,2.3,30.40,SE,141,0.0,0.0,90,0.00,,CLR,0.00,VWS V14.01,2013-02-10 05:21:00,
2013-02-10 00:26:00,4.6,2.3,30.40,SE,141,0.0,0.0,90,0.00,,CLR,0.00,VWS V14.01,2013-02-10 05:26:00,
2013-02-10 00:30:00,3.7,1.2,30.39,SE,141,0.0,0.0,89,0.00,,OVC,0.00,VWS V14.01,2013-02-10 05:30:00,
2013-02-10 00:31:00,4.8,2.8,30.40,SE,141,0.0,0.0,91,0.00,,BKN001,0.00,VWS V14.01,2013-02-10 05:31:00,
2013-02-10 00:36:00,4.9,2.6,30.40,SE,141,0.0,0.0,90,0.00,,BKN001,0.00,VWS V14.01,2013-02-10 05:36:00,
2013-02-10 00:41:00,4.7,2.4,30.40,SE,141,0.0,0.0,90,0.00,,BKN001,0.00,VWS V14.01,2013-02-10 05:41:00,
2013-02-10 00:46:00,4.8,2.5,30.40,SE,141,0.0,0.0,90,0.00,,BKN001,0.00,VWS V14.01,2013-02-10 05:46:00,
2013-02-10 00:52:00,4.7,2.4,30.40,SE,141,0.0,0.0,90,0.00,,BKN001,0.00,VWS V14.01,2013-02-10 05:52:00,
2013-02-10 00:57:00,4.7,2.4,30.40,SE,141,0.0,0.0,90,0.00,,BKN001,0.00,VWS V14.01,2013-02-10 05:57:00,
2013-02-10 01:00:00,6.1,4.8,30.39,West,274,0.0,1.0,94,0.00,,OVC,0.00,VWS V14.01,2013-02-10 06:00:00,
2013-02-10 01:02:00,4.7,2.4,30.40,SE,141,0.0,0.0,90,0.00,,BKN001,0.00,VWS V14.01,2013-02-10 06:02:00,
2013-02-10 01:07:00,4.6,2.3,30.40,SE,141,0.0,0.0,90,0.00,,BKN001,0.00,VWS V14.01,2013-02-10 06:07:00,
2013-02-10 01:12:00,4.6,2.3,30.39,SE,141,0.0,0.0,90,0.00,,BKN001,0.00,VWS V14.01,2013-02-10 06:12:00,
2013-02-10 01:17:00,4.6,2.3,30.39,SE,141,0.0,0.0,90,0.00,,BKN001,0.00,VWS V14.01,2013-02-10 06:17:00,
2013-02-10 01:22:00,4.6,2.3,30.39,SE,141,0.0,0.0,90,0.00,,BKN001,0.00,VWS V14.01,2013-02-10 06:22:00,
2013-02-10 01:27:00,4.2,1.9,30.39,SE,141,0.0,0.0,90,0.00,,BKN001,0.00,VWS V14.01,2013-02-10 06:27:00,
2013-02-10 01:30:00,4.9,2.4,30.40,ESE,107,0.0,1.0,89,0.00,,OVC,0.00,VWS V14.01,2013-02-10 06:30:00,
2013-02-10 01:32:00,3.7,1.2,30.39,SE,141,0.0,0.0,89,0.00,,BKN001,0.00,VWS V14.01,2013-02-10 06:32:00,
2013-02-10 01:37:00,3.4,0.9,30.39,SE,141,0.0,0.0,89,0.00,,BKN001,0.00,VWS V14.01,2013-02-10 06:37:00,
2013-02-10 01:43:00,3.6,1.3,30.39,SE,141,0.0,0.0,90,0.00,,BKN001,0.00,VWS V14.01,2013-02-10 06:43:00,
2013-02-10 01:48:00,3.8,1.5,30.39,SE,141,0.0,0.0,90,0.00,,,0.00,VWS V14.01,2013-02-10 06:48:00,
2013-02-10 01:53:00,3.8,1.5,30.39,SE,141,0.0,0.0,90,0.00,,,0.00,VWS V14.01,2013-02-10 06:53:00,
2013-02-10 01:58:00,4.1,1.8,30.39,WSW,255,0.0,0.0,90,0.00,,,0.00,VWS V14.01,2013-02-10 06:58:00,
2013-02-10 02:00:00,4.8,2.5,30.39,ESE,108,0.0,0.0,90,0.00,,OVC,0.00,VWS V14.01,2013-02-10 07:00:00,
2013-02-10 02:03:00,6.4,5.0,30.39,WSW,244,0.0,1.0,94,0.00,,SCT001,0.00,VWS V14.01,2013-02-10 07:03:00,
2013-02-10 02:08:00,7.4,6.0,30.39,WSW,252,0.0,1.0,94,0.00,,SCT001,0.00,VWS V14.01,2013-02-10 07:08:00,
2013-02-10 02:13:00,6.7,4.6,30.39,WSW,252,0.0,1.0,91,0.00,,SCT001,0.00,VWS V14.01,2013-02-10 07:13:00,
2013-02-10 02:18:00,5.8,3.5,30.39,ESE,108,0.0,1.0,90,0.00,,SCT001,0.00,VWS V14.01,2013-02-10 07:18:00,
2013-02-10 02:23:00,5.4,2.9,30.39,ESE,108,0.0,1.0,89,0.00,,SCT001,0.00,VWS V14.01,2013-02-10 07:23:00,
2013-02-10 02:28:00,5.0,2.5,30.40,ESE,107,0.0,1.0,89,0.00,,SCT001,0.00,VWS V14.01,2013-02-10 07:28:00,
2013-02-10 02:30:00,4.8,2.3,30.38,ESE,107,0.0,0.0,89,0.00,,OVC,0.00,VWS V14.01,2013-02-10 07:30:00,
2013-02-10 02:34:00,4.9,2.4,30.39,ESE,107,0.0,0.0,89,0.00,,SCT001,0.00,VWS V14.01,2013-02-10 07:34:00,
2013-02-10 02:39:00,4.8,2.5,30.39,ESE,108,0.0,0.0,90,0.00,,SCT001,0.00,VWS V14.01,2013-02-10 07:39:00,
2013-02-10 02:44:00,4.8,2.5,30.39,ESE,108,0.0,0.0,90,0.00,,SCT001,0.00,VWS V14.01,2013-02-10 07:44:00,
2013-02-10 02:49:00,4.6,2.1,30.39,ESE,108,0.0,0.0,89,0.00,,CLR,0.00,VWS V14.01,2013-02-10 07:49:00,
2013-02-10 02:54:00,4.7,2.4,30.39,ESE,108,0.0,0.0,90,0.00,,CLR,0.00,VWS V14.01,2013-02-10 07:54:00,
2013-02-10 02:59:00,4.8,2.5,30.39,ESE,107,0.0,0.0,90,0.00,,CLR,0.00,VWS V14.01,2013-02-10 07:59:00,
2013-02-10 03:00:00,2.9,0.2,30.39,ESE,110,0.0,0.0,88,0.00,,OVC,0.00,VWS V14.01,2013-02-10 08:00:00,
2013-02-10 03:04:00,4.9,2.6,30.39,ESE,108,0.0,0.0,90,0.00,,CLR,0.00,VWS V14.01,2013-02-10 08:04:00,
2013-02-10 03:09:00,5.1,2.8,30.39,ESE,108,0.0,0.0,90,0.00,,CLR,0.00,VWS V14.01,2013-02-10 08:09:00,
2013-02-10 03:14:00,5.3,3.0,30.38,ESE,107,0.0,0.0,90,0.00,,CLR,0.00,VWS V14.01,2013-02-10 08:14:00,
2013-02-10 03:19:00,5.2,2.9,30.38,ESE,108,0.0,0.0,90,0.00,,CLR,0.00,VWS V14.01,2013-02-10 08:19:00,
2013-02-10 03:25:00,5.2,2.9,30.38,ESE,108,0.0,0.0,90,0.00,,CLR,0.00,VWS V14.01,2013-02-10 08:25:00,
2013-02-10 03:30:00,5.0,2.7,30.38,ESE,108,0.0,0.0,90,0.00,,CLR,0.00,VWS V14.01,2013-02-10 08:30:00,
2013-02-10 03:35:00,4.7,2.2,30.39,ESE,107,0.0,0.0,89,0.00,,CLR,0.00,VWS V14.01,2013-02-10 08:35:00,
2013-02-10 03:40:00,4.6,2.1,30.39,ESE,110,0.0,0.0,89,0.00,,CLR,0.00,VWS V14.01,2013-02-10 08:40:00,
2013-02-10 03:45:00,4.8,2.5,30.39,ESE,110,0.0,0.0,90,0.00,,CLR,0.00,VWS V14.01,2013-02-10 08:45:00,
2013-02-10 03:50:00,4.6,2.3,30.39,ESE,110,0.0,0.0,90,0.00,,CLR,0.00,VWS V14.01,2013-02-10 08:50:00,
2013-02-10 03:55:00,3.8,1.0,30.39,ESE,110,0.0,0.0,88,0.00,,CLR,0.00,VWS V14.01,2013-02-10 08:55:00,
2013-02-10 04:00:00,3.0,0.3,30.39,ESE,110,0.0,0.0,88,0.00,,CLR,0.00,VWS V14.01,2013-02-10 09:00:00,
2013-02-10 04:05:00,2.9,0.4,30.39,ESE,110,0.0,0.0,89,0.00,,CLR,0.00,VWS V14.01,2013-02-10 09:05:00,
2013-02-10 04:10:00,2.9,0.4,30.39,ESE,110,0.0,0.0,89,0.00,,CLR,0.00,VWS V14.01,2013-02-10 09:10:00,
2013-02-10 04:16:00,2.8,0.3,30.39,ESE,110,0.0,0.0,89,0.00,,CLR,0.00,VWS V14.01,2013-02-10 09:16:00,
2013-02-10 04:21:00,2.8,0.3,30.39,ESE,110,0.0,0.0,89,0.00,,CLR,0.00,VWS V14.01,2013-02-10 09:21:00,
2013-02-10 04:26:00,2.9,0.4,30.39,ESE,110,0.0,0.0,89,0.00,,CLR,0.00,VWS V14.01,2013-02-10 09:26:00,
2013-02-10 04:30:00,4.8,2.8,30.38,North,11,0.0,1.0,91,0.00,,OVC,0.00,VWS V14.01,2013-02-10 09:30:00,
2013-02-10 04:31:00,3.2,0.9,30.38,NE,39,0.0,1.0,90,0.00,,CLR,0.00,VWS V14.01,2013-02-10 09:31:00,
2013-02-10 04:36:00,3.6,1.3,30.39,NE,39,0.0,1.0,90,0.00,,CLR,0.00,VWS V14.01,2013-02-10 09:36:00,
2013-02-10 04:41:00,3.9,1.6,30.39,NE,39,0.0,1.0,90,0.00,,CLR,0.00,VWS V14.01,2013-02-10 09:41:00,
2013-02-10 04:46:00,4.0,1.7,30.39,NE,38,0.0,1.0,90,0.00,,CLR,0.00,VWS V14.01,2013-02-10 09:46:00,
2013-02-10 04:51:00,3.8,1.3,30.39,NE,39,0.0,1.0,89,0.00,,CLR,0.00,VWS V14.01,2013-02-10 09:51:00,
2013-02-10 04:56:00,3.3,0.8,30.39,NE,39,0.0,1.0,89,0.00,,CLR,0.00,VWS V14.01,2013-02-10 09:56:00,
2013-02-10 05:00:00,4.3,2.0,30.38,North,11,0.0,0.0,90,0.00,,OVC,0.00,VWS V14.01,2013-02-10 10:00:00,
2013-02-10 05:01:00,2.9,0.4,30.39,NE,38,0.0,1.0,89,0.00,,CLR,0.00,VWS V14.01,2013-02-10 10:01:00,
2013-02-10 05:06:00,3.1,0.6,30.39,NE,38,0.0,0.0,89,0.00,,CLR,0.00,VWS V14.01,2013-02-10 10:06:00,
2013-02-10 05:12:00,3.3,0.8,30.39,NE,39,0.0,0.0,89,0.00,,CLR,0.00,VWS V14.01,2013-02-10 10:12:00,
2013-02-10 05:17:00,3.4,0.9,30.39,North,11,0.0,0.0,89,0.00,,CLR,0.00,VWS V14.01,2013-02-10 10:17:00,
2013-02-10 05:22:00,3.7,1.4,30.38,North,11,0.0,1.0,90,0.00,,CLR,0.00,VWS V14.01,2013-02-10 10:22:00,
2013-02-10 05:27:00,4.2,2.2,30.38,NNE,12,0.0,1.0,91,0.00,,CLR,0.00,VWS V14.01,2013-02-10 10:27:00,
2013-02-10 05:30:00,6.1,4.0,30.38,NNE,12,0.0,1.0,91,0.00,,OVC,0.00,VWS V14.01,2013-02-10 10:30:00,
2013-02-10 05:32:00,4.8,2.8,30.38,North,11,0.0,1.0,91,0.00,,CLR,0.00,VWS V14.01,2013-02-10 10:32:00,
2013-02-10 05:37:00,4.8,2.5,30.38,NNE,12,0.0,0.0,90,0.00,,CLR,0.00,VWS V14.01,2013-02-10 10:37:00,
2013-02-10 05:42:00,4.6,2.3,30.38,North,11,0.0,0.0,90,0.00,,CLR,0.00,VWS V14.01,2013-02-10 10:42:00,
2013-02-10 05:47:00,4.4,1.9,30.38,North,11,0.0,0.0,89,0.00,,CLR,0.00,VWS V14.01,2013-02-10 10:47:00,
2013-02-10 05:52:00,3.9,1.1,30.38,North,11,0.0,0.0,88,0.00,,CLR,0.00,VWS V14.01,2013-02-10 10:52:00,
2013-02-10 05:57:00,3.9,1.4,30.38,North,11,0.0,0.0,89,0.00,,CLR,0.00,VWS V14.01,2013-02-10 10:57:00,
2013-02-10 06:00:00,5.0,2.2,30.40,NNE,21,0.0,1.0,88,0.00,,OVC,0.00,VWS V14.01,2013-02-10 11:00:00,
2013-02-10 06:03:00,4.3,2.0,30.38,North,11,0.0,0.0,90,0.00,,CLR,0.00,VWS V14.01,2013-02-10 11:03:00,
2013-02-10 06:08:00,4.7,2.4,30.37,North,11,0.0,0.0,90,0.00,,CLR,0.00,VWS V14.01,2013-02-10 11:08:00,
2013-02-10 06:13:00,5.3,3.2,30.37,North,11,0.0,0.0,91,0.00,,CLR,0.00,VWS V14.01,2013-02-10 11:13:00,
2013-02-10 06:18:00,5.6,3.5,30.36,North,11,0.0,0.0,91,0.00,,CLR,0.00,VWS V14.01,2013-02-10 11:18:00,
2013-02-10 06:23:00,5.7,3.4,30.37,North,11,0.0,1.0,90,0.00,,CLR,0.00,VWS V14.01,2013-02-10 11:23:00,
2013-02-10 06:28:00,5.8,3.5,30.37,NNE,12,0.0,1.0,90,0.00,,CLR,0.00,VWS V14.01,2013-02-10 11:28:00,
2013-02-10 06:30:00,6.6,4.5,30.40,NNE,20,1.0,1.0,91,0.00,,OVC,0.00,VWS V14.01,2013-02-10 11:30:00,
2013-02-10 06:33:00,6.2,4.1,30.38,North,11,0.0,0.0,91,0.00,,CLR,0.00,VWS V14.01,2013-02-10 11:33:00,
2013-02-10 06:38:00,6.3,4.2,30.38,North,11,0.0,1.0,91,0.00,,CLR,0.00,VWS V14.01,2013-02-10 11:38:00,
2013-02-10 06:43:00,6.3,4.0,30.38,NNE,12,0.0,1.0,90,0.00,,CLR,0.00,VWS V14.01,2013-02-10 11:43:00,
2013-02-10 06:48:00,6.6,4.5,30.39,NNE,12,0.0,1.0,91,0.00,,CLR,0.00,VWS V14.01,2013-02-10 11:48:00,
2013-02-10 06:54:00,6.5,4.2,30.39,NNE,12,0.0,1.0,90,0.00,,CLR,0.00,VWS V14.01,2013-02-10 11:54:00,
2013-02-10 06:59:00,5.6,3.1,30.40,NNE,12,0.0,1.0,89,0.00,,CLR,0.00,VWS V14.01,2013-02-10 11:59:00,
2013-02-10 07:00:00,8.1,6.0,30.40,NNE,20,0.0,1.0,91,0.00,,OVC,0.00,VWS V14.01,2013-02-10 12:00:00,
2013-02-10 07:04:00,4.8,2.0,30.39,NNE,22,0.0,0.0,88,0.00,,CLR,0.00,VWS V14.01,2013-02-10 12:04:00,
2013-02-10 07:09:00,5.1,2.8,30.40,NNE,20,0.0,1.0,90,0.00,,CLR,0.00,VWS V14.01,2013-02-10 12:09:00,
2013-02-10 07:14:00,5.6,3.5,30.40,NNE,20,0.0,1.0,91,0.00,,CLR,0.00,VWS V14.01,2013-02-10 12:14:00,
2013-02-10 07:19:00,5.8,3.5,30.40,NNE,20,0.0,1.0,90,0.00,,CLR,0.00,VWS V14.01,2013-02-10 12:19:00,
2013-02-10 07:24:00,6.0,3.7,30.40,NNE,20,0.0,1.0,90,0.00,,CLR,0.00,VWS V14.01,2013-02-10 12:24:00,
2013-02-10 07:29:00,6.4,4.3,30.40,NNE,20,0.0,1.0,91,0.00,,CLR,0.00,VWS V14.01,2013-02-10 12:29:00,
2013-02-10 07:30:00,11.5,9.4,30.40,ENE,77,0.0,1.0,91,0.00,,OVC,0.00,VWS V14.01,2013-02-10 12:30:00,
2013-02-10 07:34:00,6.7,4.6,30.40,NNE,20,0.0,1.0,91,0.00,,CLR,0.00,VWS V14.01,2013-02-10 12:34:00,
2013-02-10 07:39:00,7.0,4.9,30.40,NNE,20,0.0,1.0,91,0.00,,CLR,0.00,VWS V14.01,2013-02-10 12:39:00,
2013-02-10 07:45:00,7.3,5.2,30.40,NNE,20,0.0,1.0,91,0.00,,FEW002,0.00,VWS V14.01,2013-02-10 12:45:00,
2013-02-10 07:50:00,7.5,5.4,30.40,NNE,20,0.0,1.0,91,0.00,,FEW002,0.00,VWS V14.01,2013-02-10 12:50:00,
2013-02-10 07:55:00,7.7,5.6,30.40,NNE,20,0.0,1.0,91,0.00,,FEW002,0.00,VWS V14.01,2013-02-10 12:55:00,
2013-02-10 08:00:00,7.9,5.8,30.40,NNE,20,0.0,1.0,91,0.00,,FEW002,0.00,VWS V14.01,2013-02-10 13:00:00,
2013-02-10 08:05:00,8.2,6.1,30.40,NNE,20,0.0,0.0,91,0.00,,FEW002,0.00,VWS V14.01,2013-02-10 13:05:00,
2013-02-10 08:10:00,8.7,6.6,30.40,NNE,20,0.0,0.0,91,0.00,,FEW002,0.00,VWS V14.01,2013-02-10 13:10:00,
2013-02-10 08:15:00,9.4,7.6,30.40,ENE,72,0.0,0.0,92,0.00,,FEW002,0.00,VWS V14.01,2013-02-10 13:15:00,
2013-02-10 08:20:00,10.5,8.6,30.40,East,90,0.0,1.0,92,0.00,,FEW002,0.00,VWS V14.01,2013-02-10 13:20:00,
2013-02-10 08:26:00,11.1,9.2,30.40,ENE,77,0.0,1.0,92,0.00,,FEW002,0.00,VWS V14.01,2013-02-10 13:26:00,
2013-02-10 08:30:00,17.8,14.9,30.39,SSE,150,0.0,2.0,88,0.00,,OVC,0.00,VWS V14.01,2013-02-10 13:30:00,
2013-02-10 08:31:00,11.4,9.3,30.40,ENE,77,0.0,1.0,91,0.00,,FEW002,0.00,VWS V14.01,2013-02-10 13:31:00,
2013-02-10 08:36:00,11.8,9.9,30.40,SE,134,0.0,1.0,92,0.00,,FEW002,0.00,VWS V14.01,2013-02-10 13:36:00,
2013-02-10 08:41:00,12.8,10.9,30.40,SE,140,0.0,1.0,92,0.00,,FEW002,0.00,VWS V14.01,2013-02-10 13:41:00,
2013-02-10 08:46:00,13.4,11.5,30.40,ESE,110,0.0,1.0,92,0.00,,CLR,0.00,VWS V14.01,2013-02-10 13:46:00,
2013-02-10 08:51:00,14.2,12.3,30.40,East,97,0.0,1.0,92,0.00,,CLR,0.00,VWS V14.01,2013-02-10 13:51:00,
2013-02-10 08:56:00,14.8,12.9,30.40,East,98,0.0,1.0,92,0.00,,CLR,0.00,VWS V14.01,2013-02-10 13:56:00,
2013-02-10 09:00:00,20.4,15.5,30.38,ESE,121,1.0,3.0,81,0.00,,OVC,0.00,VWS V14.01,2013-02-10 14:00:00,
2013-02-10 09:01:00,15.4,13.2,30.40,ESE,113,0.0,1.0,91,0.00,,CLR,0.00,VWS V14.01,2013-02-10 14:01:00,
2013-02-10 09:07:00,15.8,13.6,30.40,SE,127,0.0,0.0,91,0.00,,CLR,0.00,VWS V14.01,2013-02-10 14:07:00,
2013-02-10 09:12:00,16.1,13.7,30.39,ESE,122,0.0,1.0,90,0.00,,CLR,0.00,VWS V14.01,2013-02-10 14:12:00,
2013-02-10 09:17:00,16.6,14.2,30.39,ESE,108,1.0,1.0,90,0.00,,CLR,0.00,VWS V14.01,2013-02-10 14:17:00,
2013-02-10 09:22:00,16.9,14.2,30.39,SE,132,0.0,1.0,89,0.00,,CLR,0.00,VWS V14.01,2013-02-10 14:22:00,
2013-02-10 09:28:00,17.6,14.9,30.39,ENE,72,0.0,1.0,89,0.00,,CLR,0.00,VWS V14.01,2013-02-10 14:28:00,
2013-02-10 09:30:00,24.9,18.1,30.37,South,180,0.0,3.0,75,0.00,,OVC,0.00,VWS V14.01,2013-02-10 14:30:00,
2013-02-10 09:33:00,17.9,14.9,30.39,SE,135,0.0,0.0,88,0.00,,CLR,0.00,VWS V14.01,2013-02-10 14:33:00,
2013-02-10 09:38:00,18.2,14.5,30.39,ESE,112,1.0,3.0,85,0.00,,CLR,0.00,VWS V14.01,2013-02-10 14:38:00,
2013-02-10 09:43:00,18.7,14.7,30.39,SE,132,0.0,3.0,84,0.00,,CLR,0.00,VWS V14.01,2013-02-10 14:43:00,
2013-02-10 09:48:00,19.2,14.9,30.39,SE,125,0.0,3.0,83,0.00,,CLR,0.00,VWS V14.01,2013-02-10 14:48:00,
2013-02-10 09:53:00,19.8,15.2,30.38,ESE,122,0.0,3.0,82,0.00,,CLR,0.00,VWS V14.01,2013-02-10 14:53:00,
2013-02-10 09:58:00,20.3,15.1,30.38,ENE,71,1.0,3.0,80,0.00,,CLR,0.00,VWS V14.01,2013-02-10 14:58:00,
2013-02-10 10:00:00,27.3,18.8,30.35,South,180,1.0,5.0,70,0.00,,OVC,0.00,VWS V14.01,2013-02-10 15:00:00,
2013-02-10 10:04:00,20.6,15.4,30.38,ESE,121,1.0,2.0,80,0.00,,CLR,0.00,VWS V14.01,2013-02-10 15:04:00,
2013-02-10 10:09:00,21.3,16.1,30.38,SSE,149,0.0,2.0,80,0.00,,CLR,0.00,VWS V14.01,2013-02-10 15:09:00,
2013-02-10 10:14:00,22.3,16.8,30.38,SSE,167,0.0,2.0,79,0.00,,CLR,0.00,VWS V14.01,2013-02-10 15:14:00,
2013-02-10 10:19:00,22.9,16.8,30.37,ESE,107,1.0,2.0,77,0.00,,CLR,0.00,VWS V14.01,2013-02-10 15:19:00,
2013-02-10 10:24:00,23.4,17.3,30.37,ESE,122,0.0,2.0,77,0.00,,CLR,0.00,VWS V14.01,2013-02-10 15:24:00,
2013-02-10 10:29:00,24.4,17.9,30.37,SE,139,3.0,3.0,76,0.00,,CLR,0.00,VWS V14.01,2013-02-10 15:29:00,
2013-02-10 10:30:00,27.7,18.9,30.33,SW,225,3.0,6.0,69,0.00,,OVC,0.00,VWS V14.01,2013-02-10 15:30:00,
2013-02-10 10:34:00,25.4,18.6,30.37,SSE,150,1.0,2.0,75,0.00,,CLR,0.00,VWS V14.01,2013-02-10 15:34:00,
2013-02-10 10:40:00,26.5,18.7,30.36,SSW,203,2.0,3.0,72,0.00,,CLR,0.00,VWS V14.01,2013-02-10 15:40:00,
2013-02-10 10:45:00,26.9,18.4,30.36,ESE,121,0.0,3.0,70,0.00,,CLR,0.00,VWS V14.01,2013-02-10 15:45:00,
2013-02-10 10:50:00,26.7,18.2,30.36,South,174,2.0,5.0,70,0.00,,CLR,0.00,VWS V14.01,2013-02-10 15:50:00,
2013-02-10 10:55:00,26.9,18.8,30.36,SSW,194,2.0,5.0,71,0.00,,CLR,0.00,VWS V14.01,2013-02-10 15:55:00,
2013-02-10 11:00:00,27.1,18.3,30.35,SSE,157,1.0,5.0,69,0.00,,CLR,0.00,VWS V14.01,2013-02-10 16:00:00,
2013-02-10 11:05:00,27.3,18.5,30.35,SW,217,3.0,4.0,69,0.00,,CLR,0.00,VWS V14.01,2013-02-10 16:05:00,
2013-02-10 11:10:00,27.2,18.7,30.34,SSW,193,2.0,6.0,70,0.00,,CLR,0.00,VWS V14.01,2013-02-10 16:10:00,
2013-02-10 11:15:00,27.6,19.4,30.34,South,177,2.0,6.0,71,0.00,,CLR,0.00,VWS V14.01,2013-02-10 16:15:00,
2013-02-10 11:20:00,28.0,19.8,30.34,SSE,166,2.0,6.0,71,0.00,,CLR,0.00,VWS V14.01,2013-02-10 16:20:00,
2013-02-10 11:25:00,28.1,19.3,30.33,SSW,198,3.0,6.0,69,0.00,,CLR,0.00,VWS V14.01,2013-02-10 16:25:00,
2013-02-10 11:30:00,27.8,19.0,30.33,South,176,3.0,6.0,69,0.00,,CLR,0.00,VWS V14.01,2013-02-10 16:30:00,
2013-02-10 11:36:00,27.7,18.9,30.33,SSW,195,1.0,4.0,69,0.00,,CLR,0.00,VWS V14.01,2013-02-10 16:36:00,
2013-02-10 11:41:00,27.8,19.0,30.32,East,79,0.0,6.0,69,0.00,,CLR,0.00,VWS V14.01,2013-02-10 16:41:00,
2013-02-10 11:46:00,28.0,18.8,30.32,East,101,1.0,6.0,68,0.00,,CLR,0.00,VWS V14.01,2013-02-10 16:46:00,
2013-02-10 11:51:00,28.3,19.5,30.31,SE,144,3.0,6.0,69,0.00,,CLR,0.00,VWS V14.01,2013-02-10 16:51:00,
2013-02-10 11:56:00,28.5,19.0,30.31,SSW,204,1.0,6.0,67,0.00,,CLR,0.00,VWS V14.01,2013-02-10 16:56:00,
2013-02-10 12:00:00,29.3,21.4,30.27,SW,221,3.0,5.0,72,0.00,,OVC,0.00,VWS V14.01,2013-02-10 17:00:00,
2013-02-10 12:01:00,28.9,19.3,30.31,SW,217,1.0,6.0,67,0.00,,CLR,0.00,VWS V14.01,2013-02-10 17:01:00,
2013-02-10 12:06:00,29.2,19.6,30.30,South,181,1.0,3.0,67,0.00,,CLR,0.00,VWS V14.01,2013-02-10 17:06:00,
2013-02-10 12:12:00,29.5,19.9,30.29,SSW,195,2.0,4.0,67,0.00,,CLR,0.00,VWS V14.01,2013-02-10 17:12:00,
2013-02-10 12:17:00,29.6,20.4,30.29,East,93,1.0,4.0,68,0.00,,CLR,0.00,VWS V14.01,2013-02-10 17:17:00,
2013-02-10 12:22:00,29.6,20.4,30.29,NE,54,2.0,4.0,68,0.00,,CLR,0.00,VWS V14.01,2013-02-10 17:22:00,
2013-02-10 12:27:00,29.6,21.0,30.28,ESE,113,1.0,5.0,70,0.00,,CLR,0.00,VWS V14.01,2013-02-10 17:27:00,
2013-02-10 12:30:00,30.4,22.1,30.27,East,100,4.0,7.0,71,0.00,,OVC,0.00,VWS V14.01,2013-02-10 17:30:00,
2013-02-10 12:32:00,29.6,21.0,30.28,SE,125,2.0,5.0,70,0.00,,CLR,0.00,VWS V14.01,2013-02-10 17:32:00,
2013-02-10 12:37:00,29.4,20.8,30.28,SE,124,1.0,5.0,70,0.00,,CLR,0.00,VWS V14.01,2013-02-10 17:37:00,
2013-02-10 12:43:00,29.1,20.5,30.28,SE,131,2.0,5.0,70,0.00,,CLR,0.00,VWS V14.01,2013-02-10 17:43:00,
2013-02-10 12:48:00,28.7,20.5,30.27,SE,142,2.0,5.0,71,0.00,,CLR,0.00,VWS V14.01,2013-02-10 17:48:00,
2013-02-10 12:53:00,28.8,20.9,30.27,SE,139,1.0,5.0,72,0.00,,CLR,0.00,VWS V14.01,2013-02-10 17:53:00,
2013-02-10 12:58:00,29.1,21.2,30.27,South,182,2.0,5.0,72,0.00,,CLR,0.00,VWS V14.01,2013-02-10 17:58:00,
2013-02-10 13:00:00,31.9,22.5,30.24,East,94,2.0,7.0,68,0.00,,OVC,0.00,VWS V14.01,2013-02-10 18:00:00,
2013-02-10 13:03:00,29.3,21.4,30.27,ESE,120,4.0,7.0,72,0.00,,CLR,0.00,VWS V14.01,2013-02-10 18:03:00,
2013-02-10 13:09:00,29.5,21.6,30.26,SSE,147,3.0,7.0,72,0.00,,CLR,0.00,VWS V14.01,2013-02-10 18:09:00,
2013-02-10 13:14:00,29.7,21.8,30.26,SSE,155,2.0,7.0,72,0.00,,CLR,0.00,VWS V14.01,2013-02-10 18:14:00,
2013-02-10 13:19:00,30.0,21.8,30.27,East,96,4.0,7.0,71,0.00,,CLR,0.00,VWS V14.01,2013-02-10 18:19:00,
2013-02-10 13:24:00,30.2,21.9,30.27,ESE,108,3.0,7.0,71,0.00,,CLR,0.00,VWS V14.01,2013-02-10 18:24:00,
2013-02-10 13:29:00,30.3,22.0,30.28,SE,146,3.0,7.0,71,0.00,,CLR,0.00,VWS V14.01,2013-02-10 18:29:00,
2013-02-10 13:30:00,33.3,23.2,30.23,East,96,3.0,6.0,66,0.00,,OVC,0.00,VWS V14.01,2013-02-10 18:30:00,
2013-02-10 13:34:00,30.5,22.2,30.27,SE,144,3.0,4.0,71,0.00,,CLR,0.00,VWS V14.01,2013-02-10 18:34:00,
2013-02-10 13:39:00,30.6,22.3,30.26,ESE,104,2.0,4.0,71,0.00,,CLR,0.00,VWS V14.01,2013-02-10 18:39:00,
2013-02-10 13:44:00,30.7,21.8,30.26,SE,129,3.0,5.0,69,0.00,,CLR,0.00,VWS V14.01,2013-02-10 18:44:00,
2013-02-10 13:49:00,30.9,22.3,30.25,SE,131,3.0,5.0,70,0.00,,CLR,0.00,VWS V14.01,2013-02-10 18:49:00,
2013-02-10 13:55:00,31.4,22.8,30.24,ESE,115,3.0,5.0,70,0.00,,CLR,0.00,VWS V14.01,2013-02-10 18:55:00,
2013-02-10 14:00:00,31.8,22.8,30.24,South,184,3.0,7.0,69,0.00,,CLR,0.00,VWS V14.01,2013-02-10 19:00:00,
2013-02-10 14:05:00,32.0,22.6,30.24,East,96,2.0,5.0,68,0.00,,CLR,0.00,VWS V14.01,2013-02-10 19:05:00,
2013-02-10 14:10:00,32.2,22.5,30.24,South,181,1.0,6.0,67,0.00,,CLR,0.00,VWS V14.01,2013-02-10 19:10:00,
2013-02-10 14:15:00,32.3,22.9,30.23,East,83,1.0,6.0,68,0.00,,CLR,0.00,VWS V14.01,2013-02-10 19:15:00,
2013-02-10 14:20:00,32.5,23.1,30.23,SE,142,4.0,6.0,68,0.00,,CLR,0.00,VWS V14.01,2013-02-10 19:20:00,
2013-02-10 14:25:00,32.7,23.0,30.22,South,188,2.0,6.0,67,0.00,,CLR,0.00,VWS V14.01,2013-02-10 19:25:00,
2013-02-10 14:30:00,33.9,23.8,30.21,ESE,110,1.0,4.0,66,0.00,,OVC,0.00,VWS V14.01,2013-02-10 19:30:00,
2013-02-10 14:31:00,33.1,23.0,30.23,SSE,153,3.0,6.0,66,0.00,,CLR,0.00,VWS V14.01,2013-02-10 19:31:00,
2013-02-10 14:36:00,33.5,23.0,30.23,South,190,1.0,5.0,65,0.00,,CLR,0.00,VWS V14.01,2013-02-10 19:36:00,
2013-02-10 14:41:00,33.7,23.2,30.23,SSW,209,1.0,5.0,65,0.00,,CLR,0.00,VWS V14.01,2013-02-10 19:41:00,
2013-02-10 14:46:00,33.7,23.2,30.23,ESE,104,3.0,5.0,65,0.00,,CLR,0.00,VWS V14.01,2013-02-10 19:46:00,
2013-02-10 14:51:00,33.5,23.4,30.22,SSE,160,1.0,5.0,66,0.00,,CLR,0.00,VWS V14.01,2013-02-10 19:51:00,
2013-02-10 14:57:00,33.0,23.2,30.22,SE,141,2.0,5.0,67,0.00,,CLR,0.00,VWS V14.01,2013-02-10 19:57:00,
2013-02-10 15:00:00,35.5,22.6,30.20,SSW,194,3.0,5.0,59,0.00,,OVC,0.00,VWS V14.01,2013-02-10 20:00:00,
2013-02-10 15:02:00,32.7,23.0,30.21,ESE,121,4.0,5.0,67,0.00,,CLR,0.00,VWS V14.01,2013-02-10 20:02:00,
2013-02-10 15:07:00,32.5,23.1,30.21,SSE,149,1.0,3.0,68,0.00,,CLR,0.00,VWS V14.01,2013-02-10 20:07:00,
2013-02-10 15:12:00,32.6,23.2,30.21,SSE,149,1.0,3.0,68,0.00,,CLR,0.00,VWS V14.01,2013-02-10 20:12:00,
2013-02-10 15:17:00,32.8,23.1,30.21,SE,139,2.0,4.0,67,0.00,,CLR,0.00,VWS V14.01,2013-02-10 20:17:00,
2013-02-10 15:22:00,33.1,23.4,30.20,SSE,149,2.0,4.0,67,0.00,,CLR,0.00,VWS V14.01,2013-02-10 20:22:00,
2013-02-10 15:27:00,33.4,23.3,30.21,SSE,168,4.0,4.0,66,0.00,,CLR,0.00,VWS V14.01,2013-02-10 20:27:00,
2013-02-10 15:30:00,35.0,22.1,30.19,SW,222,1.0,4.0,59,0.00,,OVC,0.00,VWS V14.01,2013-02-10 20:30:00,
2013-02-10 15:32:00,33.9,23.8,30.21,South,175,1.0,4.0,66,0.00,,CLR,0.00,VWS V14.01,2013-02-10 20:32:00,
2013-02-10 15:37:00,34.5,24.0,30.20,SSW,209,1.0,4.0,65,0.00,,CLR,0.00,VWS V14.01,2013-02-10 20:37:00,
2013-02-10 15:42:00,34.7,23.8,30.20,SSW,194,3.0,5.0,64,0.00,,CLR,0.00,VWS V14.01,2013-02-10 20:42:00,
2013-02-10 15:48:00,34.8,23.1,30.20,SW,224,5.0,5.0,62,0.00,,CLR,0.00,VWS V14.01,2013-02-10 20:48:00,
2013-02-10 15:53:00,35.5,23.4,30.20,SE,146,1.0,5.0,61,0.00,,CLR,0.00,VWS V14.01,2013-02-10 20:53:00,
2013-02-10 15:58:00,35.5,23.4,30.20,SW,215,1.0,5.0,61,0.00,,CLR,0.00,VWS V14.01,2013-02-10 20:58:00,
2013-02-10 16:00:00,33.9,20.7,30.18,SW,232,1.0,5.0,58,0.00,,OVC,0.00,VWS V14.01,2013-02-10 21:00:00,
2013-02-10 16:03:00,35.5,22.6,30.20,SSE,165,2.0,3.0,59,0.00,,CLR,0.00,VWS V14.01,2013-02-10 21:03:00,
2013-02-10 16:08:00,35.5,23.0,30.20,East,86,1.0,4.0,60,0.00,,CLR,0.00,VWS V14.01,2013-02-10 21:08:00,
2013-02-10 16:13:00,35.1,22.6,30.20,ESE,105,2.0,4.0,60,0.00,,CLR,0.00,VWS V14.01,2013-02-10 21:13:00,
2013-02-10 16:18:00,34.6,22.9,30.20,ENE,74,2.0,4.0,62,0.00,,CLR,0.00,VWS V14.01,2013-02-10 21:18:00,
2013-02-10 16:23:00,34.6,22.9,30.20,ENE,63,1.0,4.0,62,0.00,,CLR,0.00,VWS V14.01,2013-02-10 21:23:00,
2013-02-10 16:28:00,35.0,22.5,30.19,SSW,203,1.0,4.0,60,0.00,,CLR,0.00,VWS V14.01,2013-02-10 21:28:00,
2013-02-10 16:30:00,32.8,19.7,30.18,WSW,239,0.0,4.0,58,0.00,,OVC,0.00,VWS V14.01,2013-02-10 21:30:00,
2013-02-10 16:33:00,34.9,22.0,30.19,SE,124,4.0,5.0,59,0.00,,CLR,0.00,VWS V14.01,2013-02-10 21:33:00,
2013-02-10 16:38:00,34.4,21.6,30.19,ESE,113,1.0,5.0,59,0.00,,CLR,0.00,VWS V14.01,2013-02-10 21:38:00,
2013-02-10 16:43:00,34.3,21.5,30.19,SSW,211,2.0,5.0,59,0.00,,CLR,0.00,VWS V14.01,2013-02-10 21:43:00,
2013-02-10 16:49:00,34.2,21.0,30.19,SE,139,0.0,5.0,58,0.00,,CLR,0.00,VWS V14.01,2013-02-10 21:49:00,
2013-02-10 16:54:00,34.1,20.9,30.19,South,186,2.0,5.0,58,0.00,,CLR,0.00,VWS V14.01,2013-02-10 21:54:00,
2013-02-10 16:59:00,34.0,20.8,30.18,SW,215,3.0,5.0,58,0.00,,CLR,0.00,VWS V14.01,2013-02-10 21:59:00,
2013-02-10 17:04:00,33.9,20.3,30.18,South,169,2.0,4.0,57,0.00,,CLR,0.00,VWS V14.01,2013-02-10 22:04:00,
2013-02-10 17:09:00,33.7,20.1,30.18,SSW,208,1.0,4.0,57,0.00,,CLR,0.00,VWS V14.01,2013-02-10 22:09:00,
2013-02-10 17:14:00,33.7,20.1,30.18,ESE,115,1.0,4.0,57,0.00,,CLR,0.00,VWS V14.01,2013-02-10 22:14:00,
2013-02-10 17:20:00,33.4,19.8,30.18,ESE,121,1.0,4.0,57,0.00,,CLR,0.00,VWS V14.01,2013-02-10 22:20:00,
2013-02-10 17:25:00,33.1,19.9,30.18,SE,142,2.0,4.0,58,0.00,,CLR,0.00,VWS V14.01,2013-02-10 22:25:00,
2013-02-10 17:30:00,32.9,19.8,30.18,East,96,3.0,4.0,58,0.00,,CLR,0.00,VWS V14.01,2013-02-10 22:30:00,
2013-02-10 17:35:00,32.8,19.7,30.18,SSE,152,0.0,3.0,58,0.00,,CLR,0.00,VWS V14.01,2013-02-10 22:35:00,
2013-02-10 17:40:00,32.7,19.6,30.18,SW,225,0.0,3.0,58,0.00,,CLR,0.00,VWS V14.01,2013-02-10 22:40:00,
2013-02-10 17:45:00,32.4,19.3,30.18,ESE,121,0.0,3.0,58,0.00,,CLR,0.00,VWS V14.01,2013-02-10 22:45:00,
2013-02-10 17:50:00,32.1,19.4,30.18,ESE,115,0.0,3.0,59,0.00,,CLR,0.00,VWS V14.01,2013-02-10 22:50:00,
2013-02-10 17:55:00,31.9,19.6,30.18,ESE,115,0.0,3.0,60,0.00,,CLR,0.00,VWS V14.01,2013-02-10 22:55:00,
2013-02-10 18:00:00,31.8,19.5,30.17,SE,138,0.0,3.0,60,0.00,,CLR,0.00,VWS V14.01,2013-02-10 23:00:00,
2013-02-10 18:05:00,31.2,19.3,30.17,SE,138,0.0,0.0,61,0.00,,CLR,0.00,VWS V14.01,2013-02-10 23:05:00,
2013-02-10 18:11:00,31.2,20.1,30.17,WSW,248,0.0,1.0,63,0.00,,CLR,0.00,VWS V14.01,2013-02-10 23:11:00,
2013-02-10 18:16:00,31.8,20.3,30.17,WSW,255,1.0,2.0,62,0.00,,CLR,0.00,VWS V14.01,2013-02-10 23:16:00,
2013-02-10 18:21:00,32.3,20.0,30.17,SW,230,3.0,3.0,60,0.00,,CLR,0.00,VWS V14.01,2013-02-10 23:21:00,
2013-02-10 18:26:00,32.4,20.1,30.17,SW,224,0.0,3.0,60,0.00,,CLR,0.00,VWS V14.01,2013-02-10 23:26:00,
2013-02-10 18:30:00,33.8,19.8,30.15,SW,217,5.0,10.0,56,0.00,,OVC,0.00,VWS V14.01,2013-02-10 23:30:00,
2013-02-10 18:31:00,32.5,20.6,30.17,SW,235,2.0,3.0,61,0.00,,CLR,0.00,VWS V14.01,2013-02-10 23:31:00,
2013-02-10 18:36:00,32.9,20.9,30.16,SW,217,2.0,4.0,61,0.00,,CLR,0.00,VWS V14.01,2013-02-10 23:36:00,
2013-02-10 18:41:00,33.2,20.0,30.16,WSW,255,2.0,7.0,58,0.00,,CLR,0.00,VWS V14.01,2013-02-10 23:41:00,
2013-02-10 18:47:00,33.4,20.2,30.16,SW,219,3.0,7.0,58,0.00,,CLR,0.00,VWS V14.01,2013-02-10 23:47:00,
2013-02-10 18:52:00,33.5,19.9,30.16,SSW,197,2.0,7.0,57,0.00,,CLR,0.00,VWS V14.01,2013-02-10 23:52:00,
2013-02-10 18:57:00,33.7,20.5,30.16,SSW,208,1.0,7.0,58,0.00,,CLR,0.00,VWS V14.01,2013-02-10 23:57:00,
2013-02-10 19:00:00,34.3,20.7,30.14,SSW,200,2.0,8.0,57,0.00,,OVC,0.00,VWS V14.01,2013-02-11 00:00:00,
2013-02-10 19:02:00,33.4,19.8,30.15,SSW,210,1.0,7.0,57,0.00,,CLR,0.00,VWS V14.01,2013-02-11 00:02:00,
2013-02-10 19:07:00,33.3,19.7,30.15,SW,228,2.0,6.0,57,0.00,,CLR,0.00,VWS V14.01,2013-02-11 00:07:00,
2013-02-10 19:12:00,33.2,19.6,30.15,SSW,213,3.0,6.0,57,0.00,,CLR,0.00,VWS V14.01,2013-02-11 00:12:00,
2013-02-10 19:17:00,33.4,19.0,30.15,South,188,3.0,9.0,55,0.00,,BKN110,0.00,VWS V14.01,2013-02-11 00:17:00,
2013-02-10 19:22:00,33.6,20.0,30.15,SSW,210,4.0,9.0,57,0.00,,BKN110,0.00,VWS V14.01,2013-02-11 00:22:00,
2013-02-10 19:27:00,33.6,20.4,30.15,SW,215,4.0,9.0,58,0.00,,BKN110,0.00,VWS V14.01,2013-02-11 00:27:00,
2013-02-10 19:30:00,34.6,21.8,30.11,SSW,205,2.0,6.0,59,0.00,,OVC,0.00,VWS V14.01,2013-02-11 00:30:00,
2013-02-10 19:32:00,33.8,19.8,30.15,SW,219,4.0,5.0,56,0.00,,BKN110,0.00,VWS V14.01,2013-02-11 00:32:00,
2013-02-10 19:38:00,33.8,20.6,30.15,SSW,200,1.0,5.0,58,0.00,,BKN110,0.00,VWS V14.01,2013-02-11 00:38:00,
2013-02-10 19:43:00,34.0,20.8,30.15,SW,218,3.0,8.0,58,0.00,,BKN110,0.00,VWS V14.01,2013-02-11 00:43:00,
2013-02-10 19:48:00,33.9,20.7,30.15,SSW,210,5.0,8.0,58,0.00,,BKN110,0.00,VWS V14.01,2013-02-11 00:48:00,
2013-02-10 19:53:00,34.1,20.9,30.14,SW,214,4.0,8.0,58,0.00,,BKN110,0.00,VWS V14.01,2013-02-11 00:53:00,
2013-02-10 19:58:00,34.2,20.6,30.14,SSW,200,1.0,8.0,57,0.00,,BKN110,0.00,VWS V14.01,2013-02-11 00:58:00,
2013-02-10 20:00:00,34.4,22.7,30.10,SSW,205,5.0,6.0,62,0.00,,OVC,0.00,VWS V14.01,2013-02-11 01:00:00,
2013-02-10 20:03:00,34.3,20.7,30.14,SSW,203,2.0,3.0,57,0.00,,BKN110,0.00,VWS V14.01,2013-02-11 01:03:00,
2013-02-10 20:08:00,34.4,20.8,30.14,SSW,205,2.0,4.0,57,0.00,,BKN110,0.00,VWS V14.01,2013-02-11 01:08:00,
2013-02-10 20:13:00,34.3,21.9,30.13,South,187,2.0,5.0,60,0.00,,BKN110,0.00,VWS V14.01,2013-02-11 01:13:00,
2013-02-10 20:18:00,34.2,22.2,30.13,South,188,3.0,5.0,61,0.00,,BKN110,0.00,VWS V14.01,2013-02-11 01:18:00,
2013-02-10 20:24:00,34.3,22.3,30.12,South,186,3.0,6.0,61,0.00,,BKN110,0.00,VWS V14.01,2013-02-11 01:24:00,
2013-02-10 20:29:00,34.5,21.7,30.11,SSE,156,1.0,6.0,59,0.00,,BKN110,0.00,VWS V14.01,2013-02-11 01:29:00,
2013-02-10 20:34:00,34.5,22.1,30.11,SSW,210,3.0,3.0,60,0.00,,OVC120,0.00,VWS V14.01,2013-02-11 01:34:00,
2013-02-10 20:39:00,34.5,21.7,30.10,SSW,194,3.0,5.0,59,0.00,,OVC120,0.00,VWS V14.01,2013-02-11 01:39:00,
2013-02-10 20:44:00,34.4,22.0,30.11,SW,217,5.0,6.0,60,0.00,,OVC120,0.00,VWS V14.01,2013-02-11 01:44:00,
2013-02-10 20:49:00,34.4,22.4,30.10,SSE,155,3.0,6.0,61,0.00,,OVC120,0.00,VWS V14.01,2013-02-11 01:49:00,
2013-02-10 20:54:00,34.5,22.5,30.10,South,190,4.0,6.0,61,0.00,,OVC120,0.00,VWS V14.01,2013-02-11 01:54:00,
2013-02-10 20:59:00,34.4,22.4,30.10,SSW,197,5.0,6.0,61,0.00,,OVC120,0.00,VWS V14.01,2013-02-11 01:59:00,
2013-02-10 21:04:00,34.3,23.0,30.10,SSW,192,3.0,6.0,63,0.00,,OVC120,0.00,VWS V14.01,2013-02-11 02:04:00,
2013-02-10 21:09:00,34.3,22.6,30.09,SSW,202,2.0,6.0,62,0.00,,OVC120,0.00,VWS V14.01,2013-02-11 02:09:00,
2013-02-10 21:15:00,34.3,22.6,30.09,South,190,2.0,6.0,62,0.00,,OVC120,0.00,VWS V14.01,2013-02-11 02:15:00,
2013-02-10 21:20:00,34.3,23.0,30.09,South,173,3.0,6.0,63,0.00,,OVC120,0.00,VWS V14.01,2013-02-11 02:20:00,
2013-02-10 21:25:00,34.3,23.0,30.09,SSW,194,2.0,6.0,63,0.00,,OVC120,0.00,VWS V14.01,2013-02-11 02:25:00,
2013-02-10 21:30:00,34.3,23.0,30.09,South,177,3.0,6.0,63,0.00,,OVC120,0.00,VWS V14.01,2013-02-11 02:30:00,
2013-02-10 21:35:00,34.3,23.4,30.08,SSW,212,4.0,6.0,64,0.00,,OVC100,0.00,VWS V14.01,2013-02-11 02:35:00,
2013-02-10 21:40:00,34.4,22.7,30.08,South,186,2.0,6.0,62,0.00,,OVC100,0.00,VWS V14.01,2013-02-11 02:40:00,
2013-02-10 21:45:00,34.6,22.9,30.08,SW,217,3.0,9.0,62,0.00,,OVC100,0.00,VWS V14.01,2013-02-11 02:45:00,
2013-02-10 21:50:00,34.5,23.6,30.08,SSW,203,2.0,9.0,64,0.00,,OVC100,0.00,VWS V14.01,2013-02-11 02:50:00,
2013-02-10 21:55:00,34.5,23.2,30.08,SSW,208,2.0,9.0,63,0.00,,OVC100,0.00,VWS V14.01,2013-02-11 02:55:00,
2013-02-10 22:00:00,35.2,23.5,30.04,SW,221,4.0,11.0,62,0.00,,OVC,0.00,VWS V14.01,2013-02-11 03:00:00,
2013-02-10 22:01:00,34.7,23.0,30.08,SSW,205,3.0,9.0,62,0.00,,OVC100,0.00,VWS V14.01,2013-02-11 03:01:00,
2013-02-10 22:06:00,34.7,23.0,30.07,SW,217,5.0,6.0,62,0.00,,OVC100,0.00,VWS V14.01,2013-02-11 03:06:00,
2013-02-10 22:11:00,34.8,23.5,30.07,SSW,202,4.0,7.0,63,0.00,,OVC100,0.00,VWS V14.01,2013-02-11 03:11:00,
2013-02-10 22:16:00,34.8,23.5,30.06,South,177,3.0,8.0,63,0.00,,OVC100,0.00,VWS V14.01,2013-02-11 03:16:00,
2013-02-10 22:21:00,34.8,23.1,30.06,SSW,208,5.0,9.0,62,0.00,,OVC100,0.00,VWS V14.01,2013-02-11 03:21:00,
2013-02-10 22:26:00,34.8,23.5,30.06,SSW,198,5.0,9.0,63,0.00,,OVC100,0.00,VWS V14.01,2013-02-11 03:26:00,
2013-02-10 22:30:00,35.7,22.8,30.02,SW,225,6.0,11.0,59,0.00,,OVC,0.00,VWS V14.01,2013-02-11 03:30:00,
2013-02-10 22:31:00,34.9,23.2,30.05,South,187,6.0,9.0,62,0.00,,OVC100,0.00,VWS V14.01,2013-02-11 03:31:00,
2013-02-10 22:36:00,35.1,23.4,30.06,SSW,203,4.0,10.0,62,0.00,,OVC100,0.00,VWS V14.01,2013-02-11 03:36:00,
2013-02-10 22:42:00,35.1,23.4,30.05,South,177,5.0,11.0,62,0.00,,OVC100,0.00,VWS V14.01,2013-02-11 03:42:00,
2013-02-10 22:47:00,35.1,23.0,30.04,SSW,197,2.0,11.0,61,0.00,,OVC100,0.00,VWS V14.01,2013-02-11 03:47:00,
2013-02-10 22:52:00,35.1,23.0,30.04,SSW,203,4.0,11.0,61,0.00,,OVC100,0.00,VWS V14.01,2013-02-11 03:52:00,
2013-02-10 22:57:00,35.1,23.4,30.04,SW,232,6.0,11.0,62,0.00,,OVC100,0.00,VWS V14.01,2013-02-11 03:57:00,
2013-02-10 23:00:00,35.8,23.3,30.01,SSW,210,6.0,15.0,60,0.00,,OVC,0.00,VWS V14.01,2013-02-11 04:00:00,
2013-02-10 23:02:00,35.2,23.5,30.04,SW,215,4.0,11.0,62,0.00,,OVC100,0.00,VWS V14.01,2013-02-11 04:02:00,
2013-02-10 23:07:00,35.1,23.0,30.03,WSW,245,5.0,5.0,61,0.00,,OVC100,0.00,VWS V14.01,2013-02-11 04:07:00,
2013-02-10 23:12:00,35.3,22.8,30.03,SW,231,2.0,9.0,60,0.00,,OVC100,0.00,VWS V14.01,2013-02-11 04:12:00,
2013-02-10 23:17:00,35.5,22.6,30.03,WSW,240,5.0,9.0,59,0.00,,OVC100,0.00,VWS V14.01,2013-02-11 04:17:00,
2013-02-10 23:22:00,35.6,23.1,30.02,SSW,195,5.0,9.0,60,0.00,,OVC100,0.00,VWS V14.01,2013-02-11 04:22:00,
2013-02-10 23:28:00,35.7,23.2,30.02,SW,215,6.0,11.0,60,0.00,,OVC100,0.00,VWS V14.01,2013-02-11 04:28:00,
2013-02-10 23:30:00,36.0,23.1,30.00,SW,214,6.0,14.0,59,0.00,,OVC,0.00,VWS V14.01,2013-02-11 04:30:00,
2013-02-10 23:33:00,35.7,22.8,30.02,SW,229,7.0,7.0,59,0.00,,OVC110,0.00,VWS V14.01,2013-02-11 04:33:00,
2013-02-10 23:38:00,35.7,22.8,30.02,SW,215,5.0,8.0,59,0.00,,OVC110,0.00,VWS V14.01,2013-02-11 04:38:00,
2013-02-10 23:43:00,35.7,22.8,30.02,SW,226,7.0,11.0,59,0.00,,OVC110,0.00,VWS V14.01,2013-02-11 04:43:00,
2013-02-10 23:48:00,35.7,22.8,30.01,SW,235,7.0,13.0,59,0.00,,OVC110,0.00,VWS V14.01,2013-02-11 04:48:00,
2013-02-10 23:53:00,35.7,23.2,30.01,SW,228,6.0,13.0,60,0.00,,OVC110,0.00,VWS V14.01,2013-02-11 04:53:00,
2013-02-10 23:58:00,35.8,22.5,30.01,SW,228,9.0,15.0,58,0.00,,OVC110,0.00,VWS V14.01,2013-02-11 04:58:00,